createdAt,value
2023-03-30T00:00:51.783Z,99865.94
2023-03-30T00:03:19.679Z,99870.69
2023-03-30T00:05:46.655Z,99866.28
2023-03-30T00:08:18.445Z,99861.88
2023-03-30T00:10:46.310Z,99853.19
2023-03-30T00:13:13.187Z,99856.31
2023-03-30T00:15:41.244Z,99847.50
2023-03-30T00:18:09.306Z,99836.75
2023-03-30T00:20:37.591Z,99827.56
2023-03-30T00:23:04.691Z,99828.41
2023-03-30T00:25:31.405Z,99820.38
2023-03-30T00:27:58.047Z,99785.41
2023-03-30T00:30:24.697Z,99800.91
2023-03-30T00:32:51.744Z,99806.03
2023-03-30T00:35:18.562Z,99811.16
2023-03-30T00:37:45.751Z,99806.03
2023-03-30T00:40:16.975Z,99802.81
2023-03-30T00:42:43.656Z,99798.75
2023-03-30T00:45:26.446Z,99795.50
2023-03-30T00:48:07.306Z,99791.56
2023-03-30T00:50:43.282Z,99798.28
2023-03-30T00:53:47.162Z,99806.63
2023-03-30T00:56:17.524Z,99807.44
2023-03-30T00:58:45.275Z,99809.78
2023-03-30T01:01:18.930Z,99815.34
2023-03-30T01:03:48.214Z,99820.91
2023-03-30T01:06:17.974Z,99811.75
2023-03-30T01:08:45.340Z,99799.81
2023-03-30T01:11:12.445Z,99795.41
2023-03-30T01:13:44.571Z,99798.66
2023-03-30T01:16:26.476Z,99815.34
2023-03-30T01:18:58.892Z,99808.13
2023-03-30T01:22:04.712Z,99806.53
2023-03-30T01:24:44.289Z,99796.56
2023-03-30T01:27:46.415Z,99796.56
2023-03-30T01:30:31.834Z,99794.94
2023-03-30T01:33:16.730Z,99802.50
2023-03-30T01:36:05.916Z,99803.28
2023-03-30T01:38:44.416Z,99800.06
2023-03-30T01:41:39.897Z,99796.47
2023-03-30T01:44:28.898Z,99787.31
2023-03-30T01:47:14.699Z,99792.53
2023-03-30T01:49:55.890Z,99785.34
2023-03-30T01:52:29.048Z,99755.09
2023-03-30T01:55:04.896Z,99733.69
2023-03-30T01:57:41.268Z,99680.03
2023-03-30T02:00:16.119Z,99736.47
2023-03-30T02:02:48.971Z,99749.19
2023-03-30T02:05:18.455Z,99744.44
2023-03-30T02:08:12.295Z,99752.31
2023-03-30T02:10:40.838Z,99759.50
2023-03-30T02:13:08.477Z,99759.50
2023-03-30T02:15:39.877Z,99738.88
2023-03-30T02:18:06.774Z,99713.41
2023-03-30T02:20:34.548Z,99711.75
2023-03-30T02:23:03.695Z,99710.16
2023-03-30T02:25:30.613Z,99710.94
2023-03-30T02:27:57.470Z,99714.53
2023-03-30T02:30:24.381Z,99712.56
2023-03-30T02:32:56.330Z,99711.75
2023-03-30T02:36:02.028Z,99716.50
2023-03-30T02:38:51.643Z,99721.28
2023-03-30T02:41:38.038Z,99724.41
2023-03-30T02:44:30.609Z,99716.44
2023-03-30T02:47:07.422Z,99729.53
2023-03-30T02:49:55.219Z,99727.09
2023-03-30T02:52:22.799Z,99723.16
2023-03-30T02:55:03.087Z,99728.25
2023-03-30T02:58:13.955Z,99728.25
2023-03-30T03:01:23.003Z,99717.13
2023-03-30T03:04:02.001Z,99709.94
2023-03-30T03:06:34.537Z,99720.25
2023-03-30T03:09:01.742Z,99727.44
2023-03-30T03:11:31.694Z,99720.63
2023-03-30T03:13:59.467Z,99724.22
2023-03-30T03:16:28.440Z,99719.00
2023-03-30T03:19:13.936Z,99707.44
2023-03-30T03:21:40.945Z,99708.25
2023-03-30T03:24:08.451Z,99704.66
2023-03-30T03:26:53.345Z,99709.75
2023-03-30T03:29:23.096Z,99705.34
2023-03-30T03:31:49.960Z,99702.09
2023-03-30T03:34:18.556Z,99707.31
2023-03-30T03:36:58.977Z,99718.44
2023-03-30T03:39:28.416Z,99731.91
2023-03-30T03:42:07.144Z,99723.56
2023-03-30T03:44:40.465Z,99711.19
2023-03-30T03:47:07.573Z,99722.28
2023-03-30T03:49:34.254Z,99715.09
2023-03-30T03:52:01.119Z,99715.09
2023-03-30T03:54:28.024Z,99730.63
2023-03-30T03:56:55.150Z,99717.44
2023-03-30T03:59:22.424Z,99726.22
2023-03-30T04:01:49.328Z,99721.47
2023-03-30T04:04:16.185Z,99716.25
2023-03-30T04:06:42.965Z,99713.47
2023-03-30T04:09:09.688Z,99720.22
2023-03-30T04:11:55.018Z,99723.00
2023-03-30T04:14:41.931Z,99713.47
2023-03-30T04:17:17.853Z,99706.31
2023-03-30T04:20:04.523Z,99708.63
2023-03-30T04:23:01.992Z,99724.16
2023-03-30T04:26:01.750Z,99728.91
2023-03-30T04:28:47.027Z,99721.38
2023-03-30T04:31:34.939Z,99718.16
2023-03-30T04:34:09.492Z,99718.16
2023-03-30T04:36:38.365Z,99723.22
2023-03-30T04:39:20.954Z,99716.88
2023-03-30T04:42:06.226Z,99723.72
2023-03-30T04:44:41.918Z,99723.72
2023-03-30T04:47:41.176Z,99728.44
2023-03-30T04:53:29.352Z,99735.97
2023-03-30T04:56:14.362Z,99739.91
2023-03-30T04:59:10.969Z,99729.50
2023-03-30T05:02:06.512Z,99737.81
2023-03-30T05:57:09.519Z,99735.88
2023-03-30T05:59:55.286Z,99743.38
2023-03-30T06:02:48.022Z,99735.75
2023-03-30T06:05:19.216Z,99749.19
2023-03-30T06:10:27.676Z,99755.94
2023-03-30T06:12:56.170Z,99751.53
2023-03-30T06:15:33.695Z,99751.09
2023-03-30T06:18:13.597Z,99762.19
2023-03-30T06:20:48.966Z,99761.38
2023-03-30T06:23:16.529Z,99767.75
2023-03-30T06:25:53.065Z,99780.84
2023-03-30T06:28:25.782Z,99790.00
2023-03-30T06:30:53.718Z,99795.56
2023-03-30T06:33:26.157Z,99793.91
2023-03-30T06:35:57.302Z,99801.44
2023-03-30T06:38:24.482Z,99797.84
2023-03-30T06:40:53.008Z,99803.41
2023-03-30T06:43:25.509Z,99802.59
2023-03-30T06:45:58.961Z,99801.81
2023-03-30T06:48:26.739Z,99805.72
2023-03-30T06:51:13.870Z,99805.72
2023-03-30T06:53:41.663Z,99809.66
2023-03-30T06:56:08.961Z,99815.22
2023-03-30T06:58:43.694Z,99813.63
2023-03-30T07:01:16.102Z,99810.84
2023-03-30T07:04:12.092Z,99821.59
2023-03-30T07:07:14.499Z,99823.56
2023-03-30T07:09:42.158Z,99822.41
2023-03-30T07:12:09.151Z,99822.41
2023-03-30T07:14:36.177Z,99826.34
2023-03-30T07:17:03.256Z,99837.44
2023-03-30T07:19:30.479Z,99833.53
2023-03-30T07:21:57.387Z,99831.91
2023-03-30T07:24:27.042Z,99827.50
2023-03-30T07:26:54.059Z,99830.28
2023-03-30T07:29:20.871Z,99842.22
2023-03-30T07:31:52.525Z,99832.59
2023-03-30T07:34:20.412Z,99842.56
2023-03-30T07:36:54.717Z,99844.19
2023-03-30T07:39:24.965Z,99843.69
2023-03-30T07:41:51.746Z,99847.28
2023-03-30T07:44:18.607Z,99843.69
2023-03-30T07:46:53.845Z,99849.25
2023-03-30T07:49:25.807Z,99859.22
2023-03-30T07:51:54.026Z,99856.44
2023-03-30T07:54:29.257Z,99862.00
2023-03-30T07:57:08.881Z,99863.97
2023-03-30T07:59:35.900Z,99862.00
2023-03-30T08:02:15.923Z,99872.31
2023-03-30T08:04:50.010Z,99862.81
2023-03-30T08:07:23.651Z,99867.56
2023-03-30T08:09:55.116Z,99871.50
2023-03-30T08:12:22.394Z,99869.91
2023-03-30T08:14:49.290Z,99871.16
2023-03-30T08:17:16.249Z,99877.88
2023-03-30T08:19:43.116Z,99882.59
2023-03-30T08:22:09.923Z,99892.13
2023-03-30T08:24:37.601Z,99904.84
2023-03-30T08:27:10.862Z,99911.56
2023-03-30T08:29:37.573Z,99911.34
2023-03-30T08:32:04.344Z,99907.84
2023-03-30T08:34:31.066Z,99909.41
2023-03-30T08:36:58.162Z,99919.84
2023-03-30T08:39:24.985Z,99935.94
2023-03-30T08:42:29.185Z,99949.34
2023-03-30T08:44:58.094Z,99957.88
2023-03-30T08:47:48.904Z,99966.97
2023-03-30T08:50:29.932Z,99966.97
2023-03-30T08:52:56.747Z,99981.06
2023-03-30T08:55:32.105Z,99975.28
2023-03-30T08:58:19.710Z,99954.19
2023-03-30T09:01:42.433Z,99962.75
2023-03-30T09:04:23.789Z,99963.88
2023-03-30T09:06:57.473Z,99964.56
2023-03-30T09:09:30.451Z,99979.53
2023-03-30T09:12:08.700Z,99990.78
2023-03-30T09:14:40.742Z,99986.22
2023-03-30T09:17:14.429Z,99995.25
2023-03-30T09:20:07.065Z,99992.69
2023-03-30T09:22:41.788Z,99974.91
2023-03-30T09:25:18.367Z,99985.78
2023-03-30T09:28:02.202Z,99986.97
2023-03-30T09:30:40.908Z,99991.56
2023-03-30T09:33:34.056Z,99995.38
2023-03-30T09:39:35.458Z,99984.50
2023-03-30T09:42:13.801Z,99995.44
2023-03-30T09:44:52.994Z,99985.00
2023-03-30T09:47:27.810Z,99992.38
2023-03-30T09:50:00.034Z,99989.69
2023-03-30T09:52:29.799Z,99989.06
2023-03-30T09:54:57.410Z,99994.63
2023-03-30T09:57:32.764Z,99983.69
2023-03-30T10:00:01.322Z,99995.28
2023-03-30T10:02:31.372Z,99997.09
2023-03-30T10:05:00.622Z,100002.22
2023-03-30T10:07:33.480Z,100001.53
2023-03-30T10:10:12.487Z,100004.06
2023-03-30T10:12:39.463Z,100006.84
2023-03-30T10:15:12.624Z,100008.19
2023-03-30T10:17:41.006Z,100013.06
2023-03-30T10:20:21.770Z,100017.75
2023-03-30T10:22:50.193Z,100014.59
2023-03-30T10:25:24.009Z,99998.84
2023-03-30T10:27:53.673Z,100012.34
2023-03-30T10:30:24.788Z,100010.75
2023-03-30T10:32:53.552Z,100009.56
2023-03-30T10:35:26.647Z,100011.72
2023-03-30T10:37:56.717Z,100010.91
2023-03-30T10:40:32.575Z,100004.53
2023-03-30T10:43:01.288Z,100007.84
2023-03-30T10:45:36.685Z,100012.00
2023-03-30T10:48:28.832Z,100010.56
2023-03-30T10:50:58.184Z,100007.31
2023-03-30T10:53:35.681Z,99999.59
2023-03-30T10:56:39.716Z,100004.50
2023-03-30T10:59:08.871Z,100006.97
2023-03-30T11:01:54.495Z,100021.44
2023-03-30T11:04:24.726Z,100008.75
2023-03-30T11:06:54.621Z,100014.22
2023-03-30T11:09:38.167Z,100007.59
2023-03-30T11:12:12.977Z,99994.16
2023-03-30T11:14:39.874Z,100002.53
2023-03-30T11:17:21.484Z,100004.66
2023-03-30T11:20:01.696Z,100001.88
2023-03-30T11:22:41.491Z,100005.13
2023-03-30T11:25:21.578Z,99994.78
2023-03-30T11:27:58.392Z,100001.97
2023-03-30T11:30:30.193Z,99984.56
2023-03-30T11:33:12.024Z,99985.44
2023-03-30T11:35:45.710Z,99977.81
2023-03-30T11:38:12.544Z,99975.03
2023-03-30T11:40:46.430Z,99978.69
2023-03-30T11:43:18.488Z,99976.09
2023-03-30T11:46:06.245Z,99974.47
2023-03-30T11:48:45.077Z,99962.16
2023-03-30T11:51:53.766Z,99952.16
2023-03-30T11:54:23.419Z,99976.25
2023-03-30T11:57:00.689Z,99988.16
2023-03-30T11:59:48.943Z,99993.00
2023-03-30T12:02:31.033Z,99998.75
2023-03-30T12:05:06.607Z,99998.75
2023-03-30T12:07:48.440Z,100000.34
2023-03-30T12:10:25.184Z,99996.84
2023-03-30T12:12:55.690Z,100018.03
2023-03-30T12:15:45.470Z,100016.38
2023-03-30T12:18:18.111Z,100007.28
2023-03-30T12:20:47.496Z,100008.47
2023-03-30T12:23:35.617Z,100018.19
2023-03-30T12:26:24.510Z,100022.59
2023-03-30T12:29:26.225Z,100045.38
2023-03-30T12:32:05.049Z,100021.84
2023-03-30T12:34:37.162Z,100018.31
2023-03-30T12:37:37.519Z,100020.47
2023-03-30T12:40:14.614Z,100025.53
2023-03-30T12:42:55.715Z,100026.41
2023-03-30T12:45:28.902Z,100028.78
2023-03-30T12:48:08.138Z,100026.78
2023-03-30T12:51:03.660Z,100012.16
2023-03-30T12:54:14.393Z,100002.50
2023-03-30T12:57:06.828Z,100008.84
2023-03-30T13:00:07.992Z,99994.50
2023-03-30T13:02:56.884Z,100001.00
2023-03-30T13:05:30.414Z,99989.44
2023-03-30T13:08:01.556Z,99990.69
2023-03-30T13:10:31.755Z,99989.34
2023-03-30T13:13:01.458Z,99976.72
2023-03-30T13:15:46.319Z,99965.97
2023-03-30T13:18:13.005Z,99966.84
2023-03-30T13:20:48.936Z,99962.81
2023-03-30T13:23:15.756Z,99962.00
2023-03-30T13:25:49.713Z,99957.34
2023-03-30T13:28:44.147Z,99970.09
2023-03-30T13:31:35.506Z,99961.34
2023-03-30T13:34:43.522Z,99963.31
2023-03-30T13:37:27.793Z,99971.88
2023-03-30T13:40:27.305Z,99971.09
2023-03-30T13:43:11.006Z,99972.38
2023-03-30T13:45:43.759Z,99975.09
2023-03-30T13:48:28.752Z,99960.72
2023-03-30T13:51:04.663Z,99955.22
2023-03-30T13:53:39.901Z,99953.09
2023-03-30T13:56:09.568Z,99949.50
2023-03-30T13:58:38.503Z,99949.53
2023-03-30T14:01:14.113Z,99944.09
2023-03-30T14:03:49.109Z,99934.59
2023-03-30T14:06:21.324Z,99940.50
2023-03-30T14:09:17.960Z,99934.25
2023-03-30T14:12:14.117Z,99950.06
2023-03-30T14:14:50.259Z,99955.78
2023-03-30T14:17:23.127Z,99952.41
2023-03-30T14:20:06.721Z,99941.31
2023-03-30T14:22:40.674Z,99940.34
2023-03-30T14:25:41.946Z,99951.25
2023-03-30T14:28:28.856Z,99946.41
2023-03-30T14:30:58.665Z,99954.03
2023-03-30T14:33:25.776Z,99957.41
2023-03-30T14:35:53.468Z,99945.13
2023-03-30T14:38:22.217Z,99949.31
2023-03-30T14:40:50.388Z,99949.31
2023-03-30T14:43:22.073Z,99957.69
2023-03-30T14:45:49.853Z,99963.16
2023-03-30T14:48:23.591Z,99956.69
2023-03-30T14:50:50.726Z,99966.22
2023-03-30T14:53:25.417Z,99960.22
2023-03-30T14:55:57.043Z,99950.19
2023-03-30T14:58:30.014Z,99953.75
2023-03-30T15:01:00.420Z,99952.97
2023-03-30T15:03:34.325Z,99955.16
2023-03-30T15:06:07.111Z,99964.13
2023-03-30T15:08:39.498Z,99969.41
2023-03-30T15:11:14.806Z,99953.91
2023-03-30T15:13:44.521Z,99951.16
2023-03-30T15:16:17.846Z,99951.16
2023-03-30T15:18:44.729Z,99953.53
2023-03-30T15:21:13.561Z,99947.75
2023-03-30T15:23:43.304Z,99948.81
2023-03-30T15:26:12.188Z,99950.41
2023-03-30T15:28:52.307Z,99948.81
2023-03-30T15:31:20.619Z,99938.81
2023-03-30T15:34:00.922Z,99940.44
2023-03-30T15:36:33.335Z,99951.31
2023-03-30T15:39:01.211Z,99944.88
2023-03-30T15:41:47.405Z,99956.16
2023-03-30T15:44:21.514Z,99952.94
2023-03-30T15:46:54.497Z,99962.50
2023-03-30T15:49:25.335Z,99959.31
2023-03-30T15:51:55.180Z,99956.47
2023-03-30T15:54:34.501Z,99951.22
2023-03-30T15:57:14.039Z,99954.09
2023-03-30T15:59:46.861Z,99956.97
2023-03-30T16:02:36.143Z,99963.34
2023-03-30T16:05:05.104Z,99964.22
2023-03-30T16:07:31.817Z,99959.75
2023-03-30T16:09:58.581Z,99962.59
2023-03-30T16:12:27.691Z,99965.84
2023-03-30T16:14:54.446Z,99950.56
2023-03-30T16:17:21.239Z,99955.34
2023-03-30T16:19:47.897Z,99950.66
2023-03-30T16:22:15.982Z,99957.81
2023-03-30T16:24:43.059Z,99948.25
2023-03-30T16:27:11.885Z,99957.00
2023-03-30T16:29:38.895Z,99938.28
2023-03-30T16:32:05.932Z,99941.47
2023-03-30T16:34:32.746Z,99938.91
2023-03-30T16:36:59.568Z,99932.50
2023-03-30T16:39:28.952Z,99936.91
2023-03-30T16:41:56.190Z,99933.69
2023-03-30T16:44:24.782Z,99930.81
2023-03-30T16:46:52.097Z,99939.81
2023-03-30T16:49:24.379Z,99940.91
2023-03-30T16:51:53.511Z,99936.41
2023-03-30T16:54:31.526Z,99930.13
2023-03-30T16:57:01.192Z,99927.66
2023-03-30T16:59:30.593Z,99937.97
2023-03-30T17:01:58.312Z,99938.09
2023-03-30T17:04:25.163Z,99940.63
2023-03-30T17:06:53.802Z,99939.59
2023-03-30T17:09:20.990Z,99936.13
2023-03-30T17:11:48.688Z,99954.16
2023-03-30T17:14:16.343Z,99950.47
2023-03-30T17:16:43.467Z,99945.25
2023-03-30T17:19:12.909Z,99947.31
2023-03-30T17:21:42.757Z,99948.00
2023-03-30T17:24:11.197Z,99950.72
2023-03-30T17:26:39.101Z,99945.13
2023-03-30T17:29:05.916Z,99953.78
2023-03-30T17:31:32.888Z,99950.56
2023-03-30T17:33:59.768Z,99955.19
2023-03-30T17:36:28.668Z,99950.88
2023-03-30T17:38:56.486Z,99953.47
2023-03-30T17:41:23.694Z,99946.94
2023-03-30T17:43:51.587Z,99963.66
2023-03-30T17:46:20.259Z,99955.66
2023-03-30T17:48:48.018Z,99950.72
2023-03-30T17:51:14.811Z,99957.84
2023-03-30T17:53:41.609Z,99964.19
2023-03-30T17:56:12.192Z,99960.94
2023-03-30T17:58:39.180Z,99966.81
2023-03-30T18:01:08.559Z,99955.22
2023-03-30T18:03:38.514Z,99959.91
2023-03-30T18:06:05.953Z,99956.25
2023-03-30T18:08:33.059Z,99952.56
2023-03-30T18:11:00.987Z,99955.69
2023-03-30T18:13:29.599Z,99958.56
2023-03-30T18:15:59.193Z,99957.84
2023-03-30T18:18:29.570Z,99956.63
2023-03-30T18:20:59.010Z,99954.78
2023-03-30T18:23:25.992Z,99957.06
2023-03-30T18:25:52.755Z,99960.25
2023-03-30T18:28:29.166Z,99952.22
2023-03-30T18:31:00.874Z,99949.38
2023-03-30T18:33:28.349Z,99952.81
2023-03-30T18:35:56.900Z,99952.00
2023-03-30T18:38:25.671Z,99952.66
2023-03-30T18:40:58.139Z,99949.44
2023-03-30T18:43:26.532Z,99944.50
2023-03-30T18:45:57.925Z,99950.03
2023-03-30T18:48:27.636Z,99957.16
2023-03-30T18:50:55.308Z,99956.28
2023-03-30T18:53:24.676Z,99945.75
2023-03-30T18:55:53.919Z,99952.88
2023-03-30T18:58:26.419Z,99961.50
2023-03-30T19:00:54.448Z,99958.72
2023-03-30T19:03:22.825Z,99962.25
2023-03-30T19:05:50.279Z,99955.75
2023-03-30T19:08:20.208Z,99946.94
2023-03-30T19:10:50.008Z,99949.66
2023-03-30T19:13:19.364Z,99946.41
2023-03-30T19:15:47.168Z,99932.38
2023-03-30T19:18:15.047Z,99937.09
2023-03-30T19:20:42.312Z,99939.50
2023-03-30T19:23:12.698Z,99937.81
2023-03-30T19:25:40.406Z,99940.13
2023-03-30T19:28:08.439Z,99936.91
2023-03-30T19:30:39.264Z,99934.50
2023-03-30T19:33:09.484Z,99928.81
2023-03-30T19:35:36.967Z,99922.34
2023-03-30T19:38:04.216Z,99927.91
2023-03-30T19:40:31.037Z,99917.94
2023-03-30T19:42:57.971Z,99911.09
2023-03-30T19:45:24.905Z,99915.78
2023-03-30T19:47:52.359Z,99911.75
2023-03-30T19:50:20.870Z,99922.09
2023-03-30T19:52:50.434Z,99921.28
2023-03-30T19:55:19.090Z,99924.44
2023-03-30T19:57:45.900Z,99929.56
2023-03-30T20:00:18.193Z,99922.81
2023-03-30T20:02:48.414Z,99932.28
2023-03-30T20:05:15.969Z,99927.88
2023-03-30T20:07:44.698Z,99917.88
2023-03-30T20:10:23.389Z,99918.59
2023-03-30T20:12:51.272Z,99914.94
2023-03-30T20:15:19.220Z,99916.09
2023-03-30T20:17:45.947Z,99907.28
2023-03-30T20:20:17.036Z,99900.88
2023-03-30T20:22:44.700Z,99903.69
2023-03-30T20:25:14.002Z,99904.84
2023-03-30T20:27:40.917Z,99903.78
2023-03-30T20:30:08.703Z,99902.53
2023-03-30T20:32:35.725Z,99892.88
2023-03-30T20:35:02.669Z,99894.78
2023-03-30T20:37:29.264Z,99895.94
2023-03-30T20:40:03.529Z,99888.31
2023-03-30T20:42:31.910Z,99888.31
2023-03-30T20:44:59.642Z,99886.22
2023-03-30T20:47:30.447Z,99890.22
2023-03-30T20:49:58.339Z,99884.63
2023-03-30T20:52:25.649Z,99883.00
2023-03-30T20:54:53.017Z,99875.81
2023-03-30T20:57:21.443Z,99875.03
2023-03-30T20:59:49.282Z,99873.72
2023-03-30T21:02:16.690Z,99876.09
2023-03-30T21:04:44.321Z,99874.19
2023-03-30T21:07:12.704Z,99872.47
2023-03-30T21:09:40.558Z,99867.72
2023-03-30T21:12:09.769Z,99868.41
2023-03-30T21:14:36.795Z,99866.81
2023-03-30T21:17:03.821Z,99861.13
2023-03-30T21:19:30.639Z,99848.47
2023-03-30T21:21:57.849Z,99854.75
2023-03-30T21:24:24.554Z,99853.84
2023-03-30T21:26:51.542Z,99865.81
2023-03-30T21:29:18.384Z,99847.81
2023-03-30T21:31:45.094Z,99857.72
2023-03-30T21:34:12.657Z,99852.50
2023-03-30T21:36:39.732Z,99840.56
2023-03-30T21:39:06.586Z,99840.09
2023-03-30T21:41:33.384Z,99837.69
2023-03-30T21:44:00.124Z,99835.22
2023-03-30T21:46:26.999Z,99836.06
2023-03-30T21:48:54.670Z,99829.59
2023-03-30T21:51:29.458Z,99835.16
2023-03-30T21:53:57.262Z,99818.44
2023-03-30T21:56:27.635Z,99820.75
2023-03-30T21:58:54.522Z,99819.16
2023-03-30T22:01:25.996Z,99811.16
2023-03-30T22:03:54.551Z,99803.59
2023-03-30T22:06:22.451Z,99801.97
2023-03-30T22:08:49.494Z,99789.25
2023-03-30T22:11:22.083Z,99784.81
2023-03-30T22:13:49.789Z,99778.91
2023-03-30T22:16:19.092Z,99772.53
2023-03-30T22:18:46.340Z,99778.44
2023-03-30T22:21:16.111Z,99769.63
2023-03-30T22:23:43.303Z,99764.06
2023-03-30T22:26:11.530Z,99767.19
2023-03-30T22:28:38.677Z,99756.81
2023-03-30T22:31:10.307Z,99754.47
2023-03-30T22:33:37.502Z,99749.22
2023-03-30T22:36:05.307Z,99741.69
2023-03-30T22:38:32.387Z,99740.44
2023-03-30T22:41:06.359Z,99742.88
2023-03-30T22:43:34.586Z,99740.81
2023-03-30T22:46:01.434Z,99736.84
2023-03-30T22:48:28.204Z,99732.91
2023-03-30T22:50:56.943Z,99722.09
2023-03-30T22:53:23.740Z,99730.81
2023-03-30T22:55:50.620Z,99727.22
2023-03-30T22:58:17.176Z,99720.84
2023-03-30T23:00:44.182Z,99715.28
2023-03-30T23:03:11.979Z,99708.09
2023-03-30T23:05:39.081Z,99699.28
2023-03-30T23:08:06.505Z,99682.56
2023-03-30T23:10:37.512Z,99680.16
2023-03-30T23:13:04.831Z,99668.63
2023-03-30T23:15:32.258Z,99663.53
2023-03-30T23:17:59.704Z,99663.53
2023-03-30T23:20:26.618Z,99657.50
2023-03-30T23:22:53.300Z,99658.22
2023-03-30T23:25:20.979Z,99652.22
2023-03-30T23:27:47.741Z,99645.50
2023-03-30T23:30:17.164Z,99650.25
2023-03-30T23:32:43.958Z,99642.69
2023-03-30T23:35:10.633Z,99627.16
2023-03-30T23:37:37.370Z,99626.00
2023-03-30T23:40:07.596Z,99626.00
2023-03-30T23:42:34.510Z,99621.59
2023-03-30T23:45:01.408Z,99615.56
2023-03-30T23:47:28.341Z,99615.56
2023-03-30T23:49:55.158Z,99616.00
2023-03-30T23:52:22.011Z,99614.03
2023-03-30T23:54:52.400Z,99594.88
2023-03-30T23:57:20.508Z,99597.69
2023-03-30T23:59:47.485Z,99597.25
